createdAt,value
2022-08-17T00:02:26.069Z,18.7
2022-08-17T00:06:26.631Z,18.5
2022-08-17T00:08:28.117Z,18.4
2022-08-17T00:10:29.551Z,18.4
2022-08-17T00:12:43.116Z,18.5
2022-08-17T00:14:35.765Z,18.5
2022-08-17T00:16:53.476Z,18.5
2022-08-17T00:19:01.957Z,18.4
2022-08-17T00:22:41.616Z,18.2
2022-08-17T00:24:43.082Z,18.1
2022-08-17T00:26:45.486Z,18.1
2022-08-17T00:33:13.920Z,17.8
2022-08-17T00:33:54.677Z,17.8
2022-08-17T00:35:56.196Z,17.8
2022-08-17T00:37:57.637Z,17.8
2022-08-17T00:39:59.201Z,17.8
2022-08-17T00:42:03.926Z,17.9
2022-08-17T00:44:05.387Z,17.9
2022-08-17T00:46:06.866Z,17.9
2022-08-17T00:48:26.213Z,18
2022-08-17T00:50:09.812Z,18
2022-08-17T00:52:12.019Z,18.1
2022-08-17T00:54:12.761Z,18.2
2022-08-17T00:56:17.542Z,18.2
2022-08-17T00:58:19.045Z,18.3
2022-08-17T01:00:20.519Z,18.3
2022-08-17T01:02:22.010Z,18.2
2022-08-17T01:08:26.421Z,17.9
2022-08-17T01:16:36.470Z,17.7
2022-08-17T01:18:37.914Z,17.6
2022-08-17T01:22:40.938Z,17.9
2022-08-17T01:24:45.701Z,18
2022-08-17T01:26:47.195Z,17.9
2022-08-17T01:28:53.712Z,17.8
2022-08-17T01:29:51.036Z,17.6
2022-08-17T01:33:53.979Z,17.5
2022-08-17T01:35:55.447Z,17.5
2022-08-17T01:38:00.275Z,17.3
2022-08-17T01:40:01.800Z,17.3
2022-08-17T01:42:03.254Z,17.3
2022-08-17T01:46:06.297Z,17.3
2022-08-17T01:48:07.826Z,17.2
2022-08-17T01:50:09.259Z,17.1
2022-08-17T01:52:14.068Z,17.1
2022-08-17T01:56:17.064Z,17
2022-08-17T01:58:18.531Z,17.1
2022-08-17T02:00:20.019Z,17.3
2022-08-17T02:02:30.945Z,17.5
2022-08-17T02:04:23.012Z,17.7
2022-08-17T02:06:28.427Z,17.7
2022-08-17T02:08:38.857Z,17.6
2022-08-17T02:10:33.981Z,17.6
2022-08-17T02:12:37.312Z,17.6
2022-08-17T02:16:36.925Z,17.7
2022-08-17T02:18:36.689Z,17.7
2022-08-17T02:22:42.989Z,17.9
2022-08-17T02:24:58.428Z,17.9
2022-08-17T02:27:48.293Z,17.8
2022-08-17T02:29:49.790Z,17.9
2022-08-17T02:31:51.312Z,17.9
2022-08-17T02:33:56.789Z,17.9
2022-08-17T02:35:57.581Z,17.9
2022-08-17T02:37:59.003Z,17.9
2022-08-17T02:40:00.530Z,17.9
2022-08-17T02:42:01.924Z,17.9
2022-08-17T02:44:03.344Z,17.8
2022-08-17T02:46:04.834Z,17.7
2022-08-17T02:48:09.596Z,17.7
2022-08-17T02:50:11.102Z,17.6
2022-08-17T02:52:12.551Z,17.7
2022-08-17T02:54:41.499Z,17.8
2022-08-17T02:56:15.524Z,17.9
2022-08-17T02:58:17.025Z,18
2022-08-17T03:00:18.485Z,18
2022-08-17T03:02:23.265Z,17.9
2022-08-17T03:04:24.767Z,17.9
2022-08-17T03:06:26.225Z,17.8
2022-08-17T03:08:27.694Z,17.9
2022-08-17T03:10:29.173Z,17.9
2022-08-17T03:12:30.642Z,17.7
2022-08-17T03:14:32.160Z,17.8
2022-08-17T03:18:38.410Z,17.9
2022-08-17T03:20:39.851Z,18
2022-08-17T03:25:02.946Z,18.3
2022-08-17T03:29:09.277Z,18.4
2022-08-17T03:31:10.661Z,18.4
2022-08-17T03:33:12.157Z,18.5
2022-08-17T03:35:13.636Z,18.6
2022-08-17T03:37:15.114Z,18.5
2022-08-17T03:39:16.570Z,18.5
2022-08-17T03:43:22.855Z,18.6
2022-08-17T03:45:24.283Z,18.6
2022-08-17T03:47:25.754Z,18.6
2022-08-17T03:49:27.400Z,18.6
2022-08-17T03:51:28.679Z,18.6
2022-08-17T03:53:30.194Z,18.6
2022-08-17T03:55:36.071Z,18.7
2022-08-17T03:57:36.418Z,18.7
2022-08-17T03:59:37.846Z,18.6
2022-08-17T04:01:39.386Z,18.7
2022-08-17T04:05:42.271Z,18.7
2022-08-17T04:07:43.704Z,18.7
2022-08-17T04:09:45.204Z,18.8
2022-08-17T04:11:49.956Z,18.8
2022-08-17T04:13:53.000Z,18.9
2022-08-17T04:15:54.429Z,18.9
2022-08-17T04:16:56.794Z,18.9
2022-08-17T04:25:06.065Z,19
2022-08-17T04:27:07.452Z,18.9
2022-08-17T04:29:08.944Z,18.9
2022-08-17T04:31:10.414Z,18.9
2022-08-17T04:33:12.183Z,18.9
2022-08-17T04:35:13.321Z,18.9
2022-08-17T04:37:14.750Z,18.9
2022-08-17T04:39:19.604Z,18.9
2022-08-17T04:41:21.071Z,18.9
2022-08-17T04:43:22.484Z,19
2022-08-17T04:45:23.943Z,18.9
2022-08-17T04:49:26.856Z,19.1
2022-08-17T04:51:28.314Z,19.1
2022-08-17T04:53:33.076Z,19.2
2022-08-17T04:57:38.476Z,19.3
2022-08-17T04:59:37.452Z,19.4
2022-08-17T05:01:39.007Z,19.4
2022-08-17T05:03:40.412Z,19.4
2022-08-17T05:05:41.860Z,19.4
2022-08-17T05:07:46.618Z,19.5
2022-08-17T05:09:48.072Z,19.5
2022-08-17T05:12:52.106Z,19.6
2022-08-17T05:14:53.392Z,19.6
2022-08-17T05:18:56.285Z,19.7
2022-08-17T05:23:02.524Z,19.8
2022-08-17T05:25:03.900Z,19.8
2022-08-17T05:27:06.177Z,19.8
2022-08-17T05:29:06.823Z,19.8
2022-08-17T05:35:14.400Z,19.8
2022-08-17T05:37:15.814Z,19.7
2022-08-17T05:41:18.756Z,19.3
2022-08-17T05:47:23.071Z,19.1
2022-08-17T05:55:32.204Z,19.3
2022-08-17T05:57:33.644Z,19.3
2022-08-17T05:59:35.107Z,19.3
2022-08-17T06:01:36.655Z,19.3
2022-08-17T06:03:41.299Z,19.1
2022-08-17T06:05:42.774Z,19.1
2022-08-17T06:07:44.242Z,19
2022-08-17T06:08:46.649Z,19
2022-08-17T06:10:48.083Z,18.9
2022-08-17T06:12:49.822Z,19
2022-08-17T06:14:50.984Z,19.1
2022-08-17T06:16:55.736Z,19.4
2022-08-17T06:18:57.237Z,19.6
2022-08-17T06:20:58.690Z,19.8
2022-08-17T06:23:00.156Z,20
2022-08-17T06:25:01.589Z,20.1
2022-08-17T06:27:03.016Z,20.3
2022-08-17T06:29:04.494Z,20.2
2022-08-17T06:31:09.257Z,19.9
2022-08-17T06:35:12.160Z,20
2022-08-17T06:37:13.624Z,19.9
2022-08-17T06:39:15.050Z,19.8
2022-08-17T06:41:16.464Z,19.8
2022-08-17T06:43:17.929Z,19.9
2022-08-17T06:45:22.707Z,20
2022-08-17T06:47:28.504Z,20
2022-08-17T06:49:25.573Z,20.1
2022-08-17T06:51:26.923Z,20.3
2022-08-17T06:53:28.376Z,20.3
2022-08-17T06:55:33.190Z,20.5
2022-08-17T06:57:31.303Z,20.7
2022-08-17T06:59:55.723Z,21
2022-08-17T07:01:37.451Z,21
2022-08-17T07:03:38.805Z,21
2022-08-17T07:06:01.322Z,21
2022-08-17T07:08:02.770Z,21.1
2022-08-17T07:10:04.178Z,21.2
2022-08-17T07:12:08.939Z,21.1
2022-08-17T07:14:12.846Z,21.1
2022-08-17T07:16:11.594Z,21.3
2022-08-17T07:18:12.926Z,21.4
2022-08-17T07:20:14.248Z,21.7
2022-08-17T07:22:15.541Z,21.7
2022-08-17T07:24:30.292Z,22.9
2022-08-17T07:26:21.819Z,23.2
2022-08-17T07:28:23.141Z,23.4
2022-08-17T07:30:24.644Z,23.2
2022-08-17T07:32:25.841Z,23.9
2022-08-17T07:38:29.721Z,22.5
2022-08-17T07:40:34.411Z,22.3
2022-08-17T07:42:35.680Z,22.3
2022-08-17T07:44:36.998Z,22.3
2022-08-17T07:46:38.392Z,22
2022-08-17T07:48:39.749Z,22.3
2022-08-17T07:50:41.021Z,22.3
2022-08-17T07:52:51.972Z,22.2
2022-08-17T07:54:46.945Z,22.3
2022-08-17T07:56:48.329Z,22.4
2022-08-17T07:58:49.683Z,22.5
2022-08-17T07:59:51.933Z,22.7
2022-08-17T08:01:55.530Z,22.6
2022-08-17T08:03:54.472Z,22.9
2022-08-17T08:05:55.761Z,22.6
2022-08-17T08:08:00.237Z,22.4
2022-08-17T08:10:01.516Z,22.4
2022-08-17T08:12:02.779Z,22.3
2022-08-17T08:14:04.086Z,22.1
2022-08-17T08:16:05.404Z,22.1
2022-08-17T08:18:06.709Z,22.1
2022-08-17T08:20:37.750Z,22.2
2022-08-17T08:22:12.656Z,22.2
2022-08-17T08:24:13.947Z,22.1
2022-08-17T08:26:18.277Z,22.1
2022-08-17T08:28:16.591Z,22.1
2022-08-17T08:30:17.998Z,22.1
2022-08-17T08:32:19.317Z,22.2
2022-08-17T08:34:44.506Z,22.3
2022-08-17T08:36:56.996Z,22.2
2022-08-17T08:38:26.580Z,22.2
2022-08-17T08:40:27.872Z,22.2
2022-08-17T08:45:00.263Z,22.4
2022-08-17T08:48:56.433Z,23.1
2022-08-17T08:50:38.633Z,23.5
2022-08-17T08:52:38.877Z,23.7
2022-08-17T08:54:40.156Z,24.1
2022-08-17T08:57:43.670Z,24
2022-08-17T08:59:45.102Z,24
2022-08-17T09:07:56.232Z,23.5
2022-08-17T09:09:59.009Z,23.5
2022-08-17T09:12:01.766Z,23.6
2022-08-17T09:13:56.953Z,23.6
2022-08-17T09:15:58.194Z,23.7
2022-08-17T09:18:59.233Z,23.5
2022-08-17T09:20:03.864Z,23.5
2022-08-17T09:22:05.131Z,23.6
2022-08-17T09:24:06.347Z,23.6
2022-08-17T09:26:07.561Z,23.6
2022-08-17T09:32:14.480Z,25.8
2022-08-17T09:34:15.728Z,25.7
2022-08-17T09:38:18.146Z,25.9
2022-08-17T09:40:19.630Z,25.8
2022-08-17T09:48:27.473Z,25.2
2022-08-17T09:51:03.914Z,25.3
2022-08-17T09:51:30.784Z,24.8
2022-08-17T09:53:32.216Z,24.8
2022-08-17T09:59:38.891Z,23.9
2022-08-17T10:01:40.116Z,23.8
2022-08-17T10:03:42.727Z,23.9
2022-08-17T10:05:43.842Z,24.2
2022-08-17T10:07:45.055Z,24.3
2022-08-17T10:09:46.249Z,23.9
2022-08-17T10:11:48.331Z,23.8
2022-08-17T10:13:53.032Z,23.8
2022-08-17T10:15:53.084Z,23.9
2022-08-17T10:17:54.271Z,23.9
2022-08-17T10:19:55.462Z,23.9
2022-08-17T10:23:57.848Z,23.9
2022-08-17T10:25:59.073Z,23.8
2022-08-17T10:28:03.549Z,23.7
2022-08-17T10:30:04.724Z,23.6
2022-08-17T10:34:07.155Z,23.6
2022-08-17T10:36:10.803Z,23.6
2022-08-17T10:38:09.550Z,23.8
2022-08-17T10:40:10.831Z,23.8
2022-08-17T10:42:15.348Z,24.1
2022-08-17T10:44:39.557Z,24.1
2022-08-17T10:46:30.562Z,24.2
2022-08-17T10:58:43.295Z,23.9
2022-08-17T11:02:45.723Z,24.2
2022-08-17T11:06:53.092Z,23.8
2022-08-17T11:08:52.545Z,23.9
2022-08-17T11:14:56.180Z,23.8
2022-08-17T11:16:57.381Z,23.9
2022-08-17T11:18:58.567Z,24.1
2022-08-17T11:20:59.777Z,24.2
2022-08-17T11:25:05.446Z,24.2
2022-08-17T11:27:06.993Z,24.4
2022-08-17T11:29:07.834Z,24.3
2022-08-17T11:31:09.044Z,24.1
2022-08-17T11:33:10.234Z,24.4
2022-08-17T11:35:11.443Z,24.3
2022-08-17T11:37:15.934Z,24.2
2022-08-17T11:39:17.155Z,24.4
2022-08-17T11:41:18.341Z,24.7
2022-08-17T11:42:20.514Z,24.8
2022-08-17T11:44:21.711Z,24.8
2022-08-17T11:46:22.917Z,24.4
2022-08-17T11:48:28.304Z,24.2
2022-08-17T11:50:28.593Z,24.4
2022-08-17T11:52:29.766Z,24.3
2022-08-17T11:54:33.366Z,24.2
2022-08-17T11:56:32.206Z,24.1
2022-08-17T11:58:33.421Z,23.8
2022-08-17T12:00:34.640Z,23.6
2022-08-17T12:02:35.866Z,23.2
2022-08-17T12:04:40.385Z,23.2
2022-08-17T12:06:41.572Z,23.2
2022-08-17T12:08:42.763Z,23.4
2022-08-17T12:10:44.010Z,23.4
2022-08-17T12:12:45.268Z,23.4
2022-08-17T12:15:09.073Z,23.3
2022-08-17T12:16:47.879Z,23.2
2022-08-17T12:18:52.552Z,23
2022-08-17T12:20:56.762Z,23
2022-08-17T12:22:55.063Z,23
2022-08-17T12:24:56.309Z,23.1
2022-08-17T12:26:57.597Z,23.2
2022-08-17T12:28:59.744Z,23.1
2022-08-17T12:31:00.211Z,23.2
2022-08-17T12:33:04.741Z,23.4
2022-08-17T12:35:06.082Z,23.4
2022-08-17T12:37:07.371Z,23.3
2022-08-17T12:38:32.616Z,23.2
2022-08-17T12:40:11.014Z,23.2
2022-08-17T12:42:12.209Z,23.3
2022-08-17T12:48:19.263Z,23.2
2022-08-17T12:50:28.858Z,23
2022-08-17T12:52:21.812Z,22.9
2022-08-17T12:54:23.155Z,22.8
2022-08-17T12:56:24.430Z,22.7
2022-08-17T12:58:25.700Z,22.6
2022-08-17T13:00:30.201Z,22.3
2022-08-17T13:02:31.463Z,22.1
2022-08-17T13:04:32.723Z,21.8
2022-08-17T13:06:34.086Z,21.6
2022-08-17T13:08:35.380Z,21.5
2022-08-17T13:10:36.636Z,21.4
2022-08-17T13:12:37.979Z,21.4
2022-08-17T13:14:42.601Z,21.3
2022-08-17T13:16:44.161Z,21.3
2022-08-17T13:18:45.230Z,21.3
2022-08-17T13:20:46.571Z,21.4
2022-08-17T13:22:47.835Z,21.4
2022-08-17T13:24:49.123Z,21.3
2022-08-17T13:26:50.483Z,21.4
2022-08-17T13:28:55.169Z,21.4
2022-08-17T13:30:56.454Z,21.4
2022-08-17T13:32:57.776Z,21.3
2022-08-17T13:34:00.055Z,21.3
2022-08-17T13:36:01.475Z,21.3
2022-08-17T13:38:02.869Z,21.2
2022-08-17T13:40:04.409Z,21.2
2022-08-17T13:42:12.210Z,21.2
2022-08-17T13:44:10.243Z,21.2
2022-08-17T13:46:11.642Z,21.2
2022-08-17T13:48:14.105Z,21.2
2022-08-17T13:50:14.334Z,21.2
2022-08-17T13:52:15.746Z,21.1
2022-08-17T13:54:17.136Z,21.2
2022-08-17T13:56:37.293Z,21.2
2022-08-17T13:58:23.141Z,21.2
2022-08-17T14:00:24.532Z,21.2
2022-08-17T14:02:28.592Z,21.2
2022-08-17T14:04:27.205Z,21.2
2022-08-17T14:06:52.344Z,21.2
2022-08-17T14:08:29.961Z,21.1
2022-08-17T14:10:34.664Z,21
2022-08-17T14:12:35.984Z,21
2022-08-17T14:14:37.355Z,20.9
2022-08-17T14:16:38.693Z,20.9
2022-08-17T14:18:56.533Z,21
2022-08-17T14:20:41.533Z,21
2022-08-17T14:22:42.930Z,21
2022-08-17T14:24:47.666Z,21
2022-08-17T14:26:49.091Z,21
2022-08-17T14:28:56.233Z,21
2022-08-17T14:31:13.266Z,21.1
2022-08-17T14:35:16.000Z,21.4
2022-08-17T14:37:20.608Z,21.6
2022-08-17T14:39:22.021Z,21.7
2022-08-17T14:45:29.957Z,22.1
2022-08-17T14:47:27.425Z,22.2
2022-08-17T14:49:28.731Z,22.2
2022-08-17T14:51:33.267Z,22.1
2022-08-17T14:53:34.658Z,22
2022-08-17T14:55:36.044Z,22
2022-08-17T14:57:37.344Z,22
2022-08-17T14:59:38.611Z,22.1
2022-08-17T15:01:40.002Z,22.1
2022-08-17T15:03:41.336Z,22.1
2022-08-17T15:05:46.022Z,22
2022-08-17T15:07:47.297Z,22
2022-08-17T15:09:48.598Z,22
2022-08-17T15:13:52.840Z,22.1
2022-08-17T15:15:52.457Z,22.3
2022-08-17T15:17:53.825Z,22.4
2022-08-17T15:19:58.334Z,22.7
2022-08-17T15:21:59.732Z,22.7
2022-08-17T15:24:01.097Z,23.1
2022-08-17T15:25:03.514Z,23.3
2022-08-17T15:27:04.814Z,23.5
2022-08-17T15:29:06.169Z,23.8
2022-08-17T15:31:07.442Z,24.1
2022-08-17T15:33:11.921Z,23.4
2022-08-17T15:35:13.512Z,23.3
2022-08-17T15:37:14.747Z,23
2022-08-17T15:39:19.678Z,23
2022-08-17T15:41:17.241Z,22.7
2022-08-17T15:43:22.017Z,22.6
2022-08-17T15:45:19.715Z,22.6
2022-08-17T15:47:24.163Z,22.6
2022-08-17T15:49:25.401Z,22.7
2022-08-17T15:51:26.649Z,22.8
2022-08-17T15:53:29.478Z,22.9
2022-08-17T15:55:30.680Z,23
2022-08-17T15:57:31.904Z,23
2022-08-17T15:59:33.161Z,22.9
2022-08-17T16:03:12.945Z,22.4
2022-08-17T16:03:59.273Z,22.3
2022-08-17T16:05:40.907Z,22.2
2022-08-17T16:07:41.401Z,22.3
2022-08-17T16:09:42.724Z,22.1
2022-08-17T16:11:44.007Z,22
2022-08-17T16:13:53.075Z,21.9
2022-08-17T16:15:57.179Z,21.9
2022-08-17T16:17:51.416Z,21.8
2022-08-17T16:19:52.327Z,21.6
2022-08-17T16:22:55.935Z,21.6
2022-08-17T16:24:57.831Z,21.5
2022-08-17T16:26:58.493Z,21.5
2022-08-17T16:29:03.167Z,21.5
2022-08-17T16:33:05.725Z,21.4
2022-08-17T16:35:07.011Z,21.4
2022-08-17T16:37:08.323Z,21.2
2022-08-17T16:39:09.613Z,21.2
2022-08-17T16:41:10.929Z,21.1
2022-08-17T16:43:15.605Z,20.8
2022-08-17T16:45:16.923Z,20.7
2022-08-17T16:47:18.215Z,20.6
2022-08-17T16:49:35.589Z,20.6
2022-08-17T16:51:20.776Z,20.6
2022-08-17T16:55:23.520Z,20.8
2022-08-17T16:57:28.180Z,21
2022-08-17T16:59:31.268Z,21
2022-08-17T17:01:30.955Z,21
2022-08-17T17:03:32.278Z,20.8
2022-08-17T17:05:33.599Z,20.7
2022-08-17T17:13:42.438Z,20.7
2022-08-17T17:15:43.774Z,20.9
2022-08-17T17:16:46.129Z,20.9
2022-08-17T17:18:47.495Z,20.9
2022-08-17T17:20:48.866Z,20.8
2022-08-17T17:22:50.298Z,20.9
2022-08-17T17:24:55.037Z,20.8
2022-08-17T17:26:56.433Z,20.8
2022-08-17T17:28:57.856Z,20.8
2022-08-17T17:30:59.252Z,20.9
2022-08-17T17:33:00.662Z,20.8
2022-08-17T17:35:02.019Z,20.9
2022-08-17T17:37:03.372Z,20.9
2022-08-17T17:39:08.010Z,20.7
2022-08-17T17:41:09.366Z,20.7
2022-08-17T17:43:37.087Z,20.6
2022-08-17T17:45:12.170Z,20.5
2022-08-17T17:47:13.600Z,20.5
2022-08-17T17:49:14.983Z,20.5
2022-08-17T17:53:22.607Z,20.4
2022-08-17T17:55:22.341Z,20.4
2022-08-17T17:57:23.664Z,20.4
2022-08-17T17:59:24.987Z,20.4
2022-08-17T18:03:27.796Z,20.2
2022-08-17T18:05:29.152Z,20
2022-08-17T18:09:35.264Z,19.7
2022-08-17T18:11:36.595Z,19.6
2022-08-17T18:13:59.635Z,19.5
2022-08-17T18:16:01.093Z,19.5
2022-08-17T18:18:02.456Z,19.5
2022-08-17T18:20:07.146Z,19.6
2022-08-17T18:22:08.546Z,19.6
2022-08-17T18:26:11.296Z,19.5
2022-08-17T18:30:15.168Z,19.4
2022-08-17T18:34:43.881Z,19.2
2022-08-17T18:38:23.278Z,19
2022-08-17T18:40:24.668Z,18.9
2022-08-17T18:44:27.561Z,18.9
2022-08-17T18:46:29.761Z,18.8
2022-08-17T18:48:33.724Z,18.7
2022-08-17T18:50:35.203Z,18.6
2022-08-17T18:52:36.602Z,18.6
2022-08-17T18:54:38.032Z,18.5
2022-08-17T18:56:39.581Z,18.6
2022-08-17T18:58:40.982Z,18.6
2022-08-17T19:00:42.487Z,18.5
2022-08-17T19:02:47.216Z,18.4
2022-08-17T19:04:48.656Z,18.4
2022-08-17T19:06:50.092Z,18.4
2022-08-17T19:07:52.753Z,18.4
2022-08-17T19:09:53.971Z,18.4
2022-08-17T19:13:56.786Z,18.4
2022-08-17T19:18:03.055Z,18.4
2022-08-17T19:20:04.501Z,18.3
2022-08-17T19:22:05.977Z,18.3
2022-08-17T19:24:07.379Z,18.3
2022-08-17T19:26:50.262Z,18.4
2022-08-17T19:32:16.509Z,18.1
2022-08-17T19:34:33.428Z,18
2022-08-17T19:36:19.461Z,17.9
2022-08-17T19:38:20.901Z,18
2022-08-17T19:40:48.755Z,17.9
2022-08-17T19:42:23.864Z,17.9
2022-08-17T19:44:28.507Z,18
2022-08-17T19:48:31.419Z,18.1
2022-08-17T19:50:32.885Z,18.2
2022-08-17T19:52:34.333Z,18.2
2022-08-17T19:54:35.775Z,18.3
2022-08-17T19:56:37.221Z,18.3
2022-08-17T19:58:41.986Z,18.4
2022-08-17T20:03:47.263Z,18.5
2022-08-17T20:06:08.647Z,18.6
2022-08-17T20:13:57.817Z,18.7
2022-08-17T20:15:59.292Z,18.8
2022-08-17T20:26:09.782Z,18.9
2022-08-17T20:28:11.222Z,19
2022-08-17T20:30:12.981Z,19
2022-08-17T20:38:18.198Z,19.2
2022-08-17T20:40:22.964Z,19.2
2022-08-17T20:42:24.301Z,19.2
2022-08-17T20:44:25.751Z,19.1
2022-08-17T20:46:27.185Z,19.1
2022-08-17T20:48:37.990Z,19.1
2022-08-17T20:50:29.942Z,19.1
2022-08-17T20:52:31.382Z,19.1
2022-08-17T20:54:36.156Z,19.1
2022-08-17T20:56:37.507Z,19
2022-08-17T20:58:38.923Z,19.1
2022-08-17T20:59:41.279Z,19.1
2022-08-17T21:01:42.784Z,19.1
2022-08-17T21:03:51.269Z,19.1
2022-08-17T21:09:51.793Z,19
2022-08-17T21:11:56.808Z,19
2022-08-17T21:17:57.514Z,18.9
2022-08-17T21:20:11.073Z,19
2022-08-17T21:26:06.445Z,19
2022-08-17T21:28:07.898Z,19
2022-08-17T21:30:10.208Z,19
2022-08-17T21:32:10.728Z,19
2022-08-17T21:34:12.184Z,19.1
2022-08-17T21:36:16.921Z,19.1
2022-08-17T21:38:18.327Z,19.1
2022-08-17T21:40:19.829Z,19.1
2022-08-17T21:42:21.176Z,19.1
2022-08-17T21:44:29.194Z,19.1
2022-08-17T21:46:25.601Z,19.2
2022-08-17T21:48:26.986Z,19.1
2022-08-17T21:50:31.743Z,19.1
2022-08-17T21:52:33.169Z,19.1
2022-08-17T21:54:34.601Z,19.1
2022-08-17T21:56:57.619Z,19.1
2022-08-17T21:58:58.964Z,19.1
2022-08-17T22:01:00.410Z,19
2022-08-17T22:03:05.089Z,19
2022-08-17T22:07:07.921Z,18.9
2022-08-17T22:09:09.376Z,18.9
2022-08-17T22:11:10.783Z,18.9
2022-08-17T22:13:16.284Z,18.8
2022-08-17T22:17:18.455Z,18.8
2022-08-17T22:19:19.838Z,18.8
2022-08-17T22:21:22.661Z,18.8
2022-08-17T22:25:24.122Z,18.7
2022-08-17T22:27:25.594Z,18.7
2022-08-17T22:29:27.028Z,18.7
2022-08-17T22:31:31.764Z,18.7
2022-08-17T22:35:34.620Z,18.7
2022-08-17T22:39:37.557Z,18.7
2022-08-17T22:41:38.940Z,18.7
2022-08-17T22:43:43.811Z,18.7
2022-08-17T22:49:53.108Z,18.7
2022-08-17T22:52:51.695Z,18.6
2022-08-17T22:54:53.152Z,18.6
2022-08-17T22:56:54.599Z,18.6
2022-08-17T22:58:59.525Z,18.6
2022-08-17T23:01:00.784Z,18.5
2022-08-17T23:03:02.295Z,18.6
2022-08-17T23:05:03.663Z,18.6
2022-08-17T23:07:05.240Z,18.5
2022-08-17T23:09:06.556Z,18.6
2022-08-17T23:11:07.980Z,18.6
2022-08-17T23:13:12.919Z,18.6
2022-08-17T23:15:14.137Z,18.6
2022-08-17T23:17:15.595Z,18.6
2022-08-17T23:19:17.062Z,18.5
2022-08-17T23:21:24.990Z,18.5
2022-08-17T23:23:23.523Z,18.5
2022-08-17T23:25:21.388Z,18.5
2022-08-17T23:27:26.175Z,18.5
2022-08-17T23:29:27.576Z,18.5
2022-08-17T23:31:29.052Z,18.4
2022-08-17T23:37:33.381Z,18.4
2022-08-17T23:39:34.882Z,18.4
2022-08-17T23:41:39.534Z,18.4
2022-08-17T23:43:40.997Z,18.3
2022-08-17T23:45:42.459Z,18.3
2022-08-17T23:46:44.860Z,18.4
2022-08-17T23:48:46.301Z,18.4
2022-08-17T23:50:47.730Z,18.4
2022-08-17T23:52:49.174Z,18.4
2022-08-17T23:54:53.900Z,18.4
2022-08-17T23:56:55.341Z,18.4
2022-08-17T23:58:56.769Z,18.3
